createdAt,value
2023-04-26T00:02:34.578Z,55.91
2023-04-26T00:05:27.233Z,56.01
2023-04-26T00:08:16.605Z,56.12
2023-04-26T00:11:06.117Z,56.09
2023-04-26T00:13:55.448Z,56.38
2023-04-26T00:16:44.854Z,56.35
2023-04-26T00:19:34.141Z,56.70
2023-04-26T00:22:25.189Z,56.70
2023-04-26T00:25:14.826Z,56.97
2023-04-26T00:28:04.152Z,57.03
2023-04-26T00:30:53.600Z,57.09
2023-04-26T00:33:42.901Z,57.15
2023-04-26T00:36:32.827Z,57.02
2023-04-26T00:39:23.572Z,56.89
2023-04-26T00:42:13.043Z,57.22
2023-04-26T00:45:02.443Z,57.20
2023-04-26T00:47:53.210Z,57.40
2023-04-26T00:50:42.744Z,57.22
2023-04-26T00:53:32.482Z,57.84
2023-04-26T00:56:24.316Z,58.37
2023-04-26T00:59:14.114Z,58.69
2023-04-26T01:02:04.693Z,59.00
2023-04-26T01:04:53.942Z,59.09
2023-04-26T01:07:43.237Z,59.21
2023-04-26T01:10:33.813Z,59.36
2023-04-26T01:13:24.616Z,59.42
2023-04-26T01:16:15.184Z,59.24
2023-04-26T01:19:11.021Z,59.38
2023-04-26T01:22:01.307Z,59.51
2023-04-26T01:24:54.360Z,59.71
2023-04-26T01:27:43.849Z,59.49
2023-04-26T01:30:34.094Z,59.88
2023-04-26T01:33:25.678Z,59.83
2023-04-26T01:36:14.881Z,59.78
2023-04-26T01:39:04.944Z,59.77
2023-04-26T01:41:55.692Z,60.17
2023-04-26T01:44:46.014Z,60.05
2023-04-26T01:47:35.367Z,59.75
2023-04-26T01:50:24.779Z,60.00
2023-04-26T01:53:14.161Z,60.29
2023-04-26T01:56:05.822Z,60.29
2023-04-26T01:58:57.524Z,60.46
2023-04-26T02:01:47.130Z,60.52
2023-04-26T02:04:36.945Z,60.51
2023-04-26T02:07:27.009Z,60.59
2023-04-26T02:10:18.791Z,60.82
2023-04-26T02:13:09.906Z,61.01
2023-04-26T02:16:00.858Z,60.89
2023-04-26T02:18:51.057Z,60.88
2023-04-26T02:21:55.852Z,61.14
2023-04-26T02:24:45.823Z,61.12
2023-04-26T02:27:35.193Z,61.13
2023-04-26T02:30:24.394Z,61.15
2023-04-26T02:33:15.355Z,61.16
2023-04-26T02:36:06.386Z,61.35
2023-04-26T02:38:55.972Z,61.33
2023-04-26T02:41:45.580Z,61.43
2023-04-26T02:44:35.053Z,61.53
2023-04-26T02:47:25.133Z,61.54
2023-04-26T02:50:16.223Z,61.81
2023-04-26T02:53:05.561Z,61.70
2023-04-26T02:55:55.996Z,61.84
2023-04-26T02:58:45.243Z,61.82
2023-04-26T03:01:34.574Z,61.78
2023-04-26T03:04:24.031Z,61.87
2023-04-26T03:07:14.699Z,61.83
2023-04-26T03:10:05.008Z,61.76
2023-04-26T03:12:54.650Z,61.69
2023-04-26T03:15:47.245Z,61.47
2023-04-26T03:18:37.630Z,61.11
2023-04-26T03:21:28.589Z,61.29
2023-04-26T03:24:20.143Z,61.03
2023-04-26T03:27:10.040Z,61.34
2023-04-26T03:29:59.760Z,61.29
2023-04-26T03:32:50.608Z,61.35
2023-04-26T03:35:40.017Z,61.34
2023-04-26T03:38:29.289Z,61.70
2023-04-26T03:41:20.432Z,61.48
2023-04-26T03:44:09.847Z,61.32
2023-04-26T03:46:59.389Z,61.65
2023-04-26T03:49:49.065Z,61.47
2023-04-26T03:52:38.596Z,61.71
2023-04-26T03:55:27.956Z,61.55
2023-04-26T03:58:19.423Z,61.68
2023-04-26T04:01:08.858Z,61.73
2023-04-26T04:03:58.298Z,61.75
2023-04-26T04:06:48.135Z,61.76
2023-04-26T04:09:37.707Z,61.66
2023-04-26T04:12:27.084Z,61.56
2023-04-26T04:15:18.963Z,61.89
2023-04-26T04:18:10.437Z,61.85
2023-04-26T04:21:00.398Z,61.60
2023-04-26T04:23:50.428Z,61.54
2023-04-26T04:26:40.372Z,61.61
2023-04-26T04:29:29.788Z,61.87
2023-04-26T04:32:21.159Z,61.63
2023-04-26T04:35:11.314Z,61.76
2023-04-26T04:38:00.592Z,61.81
2023-04-26T04:40:51.304Z,61.75
2023-04-26T04:43:41.840Z,61.77
2023-04-26T04:46:36.464Z,61.65
2023-04-26T04:49:27.420Z,62.07
2023-04-26T04:52:18.786Z,62.05
2023-04-26T04:55:09.170Z,62.01
2023-04-26T04:58:00.569Z,62.16
2023-04-26T05:00:54.427Z,62.45
2023-04-26T05:03:48.944Z,62.26
2023-04-26T05:06:39.774Z,62.38
2023-04-26T05:09:29.402Z,62.50
2023-04-26T05:12:18.751Z,62.43
2023-04-26T05:15:10.551Z,62.33
2023-04-26T05:18:01.306Z,62.20
2023-04-26T05:20:51.756Z,62.35
2023-04-26T05:23:43.618Z,62.27
2023-04-26T05:26:33.512Z,62.38
2023-04-26T05:29:42.655Z,62.27
2023-04-26T05:32:50.546Z,62.26
2023-04-26T05:36:18.859Z,62.42
2023-04-26T05:39:10.891Z,62.28
2023-04-26T05:42:03.776Z,62.42
2023-04-26T05:44:59.912Z,62.48
2023-04-26T05:47:51.552Z,62.46
2023-04-26T05:50:41.026Z,62.62
2023-04-26T05:53:31.507Z,62.56
2023-04-26T05:56:24.450Z,62.50
2023-04-26T05:59:14.042Z,62.20
2023-04-26T06:02:04.913Z,62.63
2023-04-26T06:04:54.707Z,62.66
2023-04-26T06:07:44.984Z,62.84
2023-04-26T06:10:34.514Z,62.81
2023-04-26T06:13:25.462Z,62.91
2023-04-26T06:16:14.888Z,62.62
2023-04-26T06:19:04.774Z,62.65
2023-04-26T06:21:55.632Z,62.61
2023-04-26T06:24:45.173Z,62.35
2023-04-26T06:27:34.546Z,62.44
2023-04-26T06:30:25.390Z,62.44
2023-04-26T06:33:15.487Z,62.91
2023-04-26T06:36:05.268Z,62.41
2023-04-26T06:38:54.513Z,62.49
2023-04-26T06:41:43.892Z,62.18
2023-04-26T06:44:34.859Z,62.75
2023-04-26T06:47:28.874Z,62.73
2023-04-26T06:50:18.448Z,62.78
2023-04-26T06:53:07.803Z,62.46
2023-04-26T06:55:58.349Z,62.80
2023-04-26T06:59:01.651Z,62.48
2023-04-26T07:01:51.019Z,61.84
2023-04-26T07:04:41.934Z,62.49
2023-04-26T07:07:31.625Z,61.94
2023-04-26T07:10:21.306Z,61.94
2023-04-26T07:13:11.086Z,61.28
2023-04-26T07:16:00.687Z,61.21
2023-04-26T07:18:50.164Z,61.78
2023-04-26T07:21:40.878Z,60.47
2023-04-26T07:24:30.233Z,61.02
2023-04-26T07:27:19.724Z,61.74
2023-04-26T07:30:11.364Z,61.44
2023-04-26T07:33:01.051Z,61.43
2023-04-26T07:35:56.923Z,60.11
2023-04-26T07:38:47.737Z,59.51
2023-04-26T07:41:36.970Z,59.21
2023-04-26T07:44:26.275Z,57.89
2023-04-26T07:47:15.894Z,54.32
2023-04-26T07:50:06.000Z,51.11
2023-04-26T07:52:55.220Z,49.78
2023-04-26T07:55:46.331Z,50.01
2023-04-26T07:58:36.285Z,49.20
2023-04-26T08:01:26.237Z,49.16
2023-04-26T08:04:15.778Z,48.31
2023-04-26T08:07:05.240Z,48.13
2023-04-26T08:09:54.633Z,48.40
2023-04-26T08:12:45.360Z,47.33
2023-04-26T08:15:34.862Z,47.24
2023-04-26T08:18:24.134Z,46.41
2023-04-26T08:21:13.528Z,46.60
2023-04-26T08:24:02.779Z,46.68
2023-04-26T08:26:52.114Z,46.31
2023-04-26T08:29:43.065Z,46.05
2023-04-26T08:32:34.191Z,45.91
2023-04-26T08:35:23.434Z,45.58
2023-04-26T08:38:12.739Z,45.46
2023-04-26T08:41:03.100Z,44.95
2023-04-26T08:43:52.935Z,45.48
2023-04-26T08:46:57.206Z,45.47
2023-04-26T08:49:50.365Z,45.45
2023-04-26T08:52:41.094Z,43.61
2023-04-26T08:55:31.104Z,43.00
2023-04-26T08:58:21.642Z,43.67
2023-04-26T09:01:11.609Z,43.01
2023-04-26T09:04:03.385Z,42.82
2023-04-26T09:06:54.686Z,42.19
2023-04-26T09:09:47.252Z,41.34
2023-04-26T09:12:36.827Z,41.74
2023-04-26T09:15:28.318Z,41.72
2023-04-26T09:18:22.989Z,41.47
2023-04-26T09:21:17.986Z,41.09
2023-04-26T09:24:08.021Z,40.67
2023-04-26T09:27:04.234Z,40.29
2023-04-26T09:30:04.593Z,39.29
2023-04-26T09:32:57.652Z,38.61
2023-04-26T09:35:46.945Z,38.99
2023-04-26T09:38:44.330Z,39.23
2023-04-26T09:41:46.476Z,38.81
2023-04-26T09:44:36.693Z,38.78
2023-04-26T09:47:25.938Z,36.73
2023-04-26T09:50:15.301Z,37.98
2023-04-26T09:53:04.615Z,38.31
2023-04-26T09:55:55.693Z,38.54
2023-04-26T09:58:59.387Z,37.28
2023-04-26T10:01:48.643Z,38.33
2023-04-26T10:04:38.664Z,38.48
2023-04-26T10:07:28.161Z,37.39
2023-04-26T10:10:19.060Z,37.57
2023-04-26T10:13:09.881Z,36.33
2023-04-26T10:15:59.367Z,37.22
2023-04-26T10:18:49.676Z,37.68
2023-04-26T10:21:41.594Z,38.94
2023-04-26T10:24:31.418Z,39.34
2023-04-26T10:27:50.223Z,39.77
2023-04-26T10:30:59.536Z,39.27
2023-04-26T10:34:21.550Z,40.32
2023-04-26T10:37:13.109Z,39.56
2023-04-26T10:40:27.479Z,39.02
2023-04-26T10:43:32.931Z,37.87
2023-04-26T10:46:38.783Z,37.15
2023-04-26T10:49:28.100Z,36.80
2023-04-26T10:52:20.334Z,36.29
2023-04-26T10:55:10.504Z,35.43
2023-04-26T10:57:59.942Z,35.38
2023-04-26T11:01:06.415Z,33.84
2023-04-26T11:04:12.436Z,32.57
2023-04-26T11:07:05.257Z,32.64
2023-04-26T11:09:54.805Z,32.96
2023-04-26T11:12:44.252Z,33.19
2023-04-26T11:15:34.314Z,32.32
2023-04-26T11:18:23.860Z,30.52
2023-04-26T11:21:15.491Z,29.52
2023-04-26T11:24:05.045Z,29.96
2023-04-26T11:26:54.514Z,29.27
2023-04-26T11:29:43.959Z,28.67
2023-04-26T11:32:34.503Z,28.43
2023-04-26T11:35:24.904Z,27.86
2023-04-26T11:38:16.210Z,27.57
2023-04-26T11:41:06.287Z,28.18
2023-04-26T11:43:55.664Z,28.07
2023-04-26T11:46:45.459Z,28.14
2023-04-26T11:49:37.010Z,27.26
2023-04-26T11:52:26.582Z,28.92
2023-04-26T11:55:17.265Z,29.58
2023-04-26T11:58:15.531Z,29.41
2023-04-26T12:01:04.780Z,29.14
2023-04-26T12:03:56.936Z,29.08
2023-04-26T12:09:41.478Z,29.76
2023-04-26T12:12:32.308Z,29.61
2023-04-26T12:15:25.971Z,29.32
2023-04-26T12:18:15.704Z,28.29
2023-04-26T12:21:05.524Z,28.06
2023-04-26T12:23:54.922Z,26.46
2023-04-26T12:26:45.823Z,24.47
2023-04-26T12:29:36.879Z,24.85
2023-04-26T12:32:27.110Z,25.90
2023-04-26T12:35:16.913Z,24.73
2023-04-26T12:38:06.255Z,25.59
2023-04-26T12:40:55.957Z,26.74
2023-04-26T12:43:45.263Z,27.64
2023-04-26T12:46:36.480Z,28.51
2023-04-26T12:49:26.210Z,29.04
2023-04-26T12:52:15.561Z,29.74
2023-04-26T12:55:05.272Z,30.75
2023-04-26T12:57:54.554Z,31.41
2023-04-26T13:00:44.697Z,32.33
2023-04-26T13:03:36.378Z,32.22
2023-04-26T13:06:27.892Z,33.15
2023-04-26T13:09:17.691Z,33.64
2023-04-26T13:12:07.536Z,33.59
2023-04-26T13:14:56.982Z,33.52
2023-04-26T13:17:47.129Z,33.73
2023-04-26T13:20:38.316Z,34.46
2023-04-26T13:23:27.812Z,33.12
2023-04-26T13:26:18.465Z,33.01
2023-04-26T13:29:08.104Z,32.60
2023-04-26T13:31:58.831Z,31.86
2023-04-26T13:34:48.146Z,31.75
2023-04-26T13:37:39.039Z,31.87
2023-04-26T13:40:28.425Z,31.06
2023-04-26T13:43:17.692Z,31.51
2023-04-26T13:46:06.968Z,28.88
2023-04-26T13:48:56.908Z,28.87
2023-04-26T13:51:46.237Z,27.66
2023-04-26T13:54:37.248Z,27.17
2023-04-26T13:57:26.549Z,27.30
2023-04-26T14:00:18.028Z,26.87
2023-04-26T14:03:09.702Z,26.94
2023-04-26T14:05:58.970Z,26.90
2023-04-26T14:08:48.177Z,26.91
2023-04-26T14:11:38.891Z,27.09
2023-04-26T14:14:28.266Z,26.69
2023-04-26T14:17:17.859Z,26.91
2023-04-26T14:20:10.553Z,26.88
2023-04-26T14:23:00.022Z,27.42
2023-04-26T14:25:53.631Z,27.25
2023-04-26T14:28:45.082Z,26.89
2023-04-26T14:31:34.470Z,26.77
2023-04-26T14:34:23.946Z,26.02
2023-04-26T14:37:13.214Z,26.69
2023-04-26T14:40:02.456Z,26.52
2023-04-26T14:42:52.213Z,27.10
2023-04-26T14:45:45.862Z,27.39
2023-04-26T14:48:35.194Z,26.98
2023-04-26T14:51:24.491Z,25.79
2023-04-26T14:54:13.958Z,25.08
2023-04-26T14:57:03.200Z,25.94
2023-04-26T14:59:52.587Z,26.68
2023-04-26T15:02:43.397Z,26.66
2023-04-26T15:05:33.771Z,26.94
2023-04-26T15:08:23.001Z,26.52
2023-04-26T15:11:12.276Z,26.49
2023-04-26T15:14:01.604Z,26.87
2023-04-26T15:16:50.872Z,26.28
2023-04-26T15:19:41.744Z,25.88
2023-04-26T15:22:31.447Z,26.12
2023-04-26T15:25:21.271Z,25.83
2023-04-26T15:28:10.583Z,26.00
2023-04-26T15:31:04.184Z,26.56
2023-04-26T15:33:56.531Z,26.41
2023-04-26T15:36:47.583Z,26.10
2023-04-26T15:39:37.002Z,27.15
2023-04-26T15:42:26.425Z,27.00
2023-04-26T15:45:15.819Z,27.23
2023-04-26T15:48:05.917Z,28.10
2023-04-26T15:50:56.933Z,29.00
2023-04-26T15:53:47.956Z,28.64
2023-04-26T15:56:37.550Z,28.63
2023-04-26T15:59:26.892Z,28.17
2023-04-26T16:02:16.269Z,28.50
2023-04-26T16:05:08.373Z,28.04
2023-04-26T16:07:57.833Z,28.46
2023-04-26T16:10:48.486Z,28.56
2023-04-26T16:13:37.925Z,29.17
2023-04-26T16:16:27.250Z,29.56
2023-04-26T16:19:17.512Z,29.68
2023-04-26T16:22:06.773Z,30.53
2023-04-26T16:24:56.129Z,30.95
2023-04-26T16:27:46.866Z,31.28
2023-04-26T16:30:36.963Z,30.92
2023-04-26T16:33:26.832Z,31.57
2023-04-26T16:36:16.504Z,31.84
2023-04-26T16:39:06.084Z,31.70
2023-04-26T16:41:55.990Z,31.74
2023-04-26T16:44:46.722Z,32.12
2023-04-26T16:47:36.513Z,32.14
2023-04-26T16:50:26.028Z,32.22
2023-04-26T16:53:16.029Z,32.42
2023-04-26T16:56:06.440Z,32.19
2023-04-26T16:58:55.925Z,32.73
2023-04-26T17:01:47.378Z,32.93
2023-04-26T17:04:37.112Z,33.24
2023-04-26T17:07:27.232Z,33.49
2023-04-26T17:10:16.503Z,33.47
2023-04-26T17:13:09.013Z,33.60
2023-04-26T17:15:58.484Z,33.73
2023-04-26T17:18:49.251Z,33.85
2023-04-26T17:21:38.566Z,34.03
2023-04-26T17:24:27.743Z,34.00
2023-04-26T17:27:18.119Z,34.13
2023-04-26T17:30:09.272Z,34.81
2023-04-26T17:32:58.509Z,34.91
2023-04-26T17:35:49.364Z,35.24
2023-04-26T17:38:38.663Z,35.22
2023-04-26T17:41:28.043Z,35.51
2023-04-26T17:44:17.814Z,35.81
2023-04-26T17:47:07.249Z,35.13
2023-04-26T17:49:59.018Z,35.30
2023-04-26T17:52:49.712Z,35.12
2023-04-26T17:55:39.036Z,35.45
2023-04-26T17:58:28.275Z,35.45
2023-04-26T18:01:17.691Z,35.84
2023-04-26T18:04:07.496Z,36.33
2023-04-26T18:06:57.205Z,37.05
2023-04-26T18:09:47.894Z,37.40
2023-04-26T18:12:38.284Z,38.30
2023-04-26T18:15:27.883Z,38.58
2023-04-26T18:18:17.304Z,39.64
2023-04-26T18:21:06.953Z,40.11
2023-04-26T18:23:56.400Z,40.44
2023-04-26T18:26:47.084Z,40.56
2023-04-26T18:29:36.401Z,41.73
2023-04-26T18:32:25.905Z,40.96
2023-04-26T18:35:15.723Z,41.23
2023-04-26T18:38:05.309Z,41.37
2023-04-26T18:40:54.617Z,41.60
2023-04-26T18:43:45.445Z,41.60
2023-04-26T18:46:34.799Z,41.30
2023-04-26T18:49:24.315Z,41.69
2023-04-26T18:52:13.868Z,42.49
2023-04-26T18:55:03.284Z,43.39
2023-04-26T18:57:52.662Z,44.22
2023-04-26T19:00:43.413Z,44.77
2023-04-26T19:03:32.831Z,45.45
2023-04-26T19:06:22.370Z,45.86
2023-04-26T19:09:13.416Z,46.32
2023-04-26T19:12:02.843Z,46.68
2023-04-26T19:14:52.496Z,47.18
2023-04-26T19:17:43.185Z,47.37
2023-04-26T19:20:32.542Z,47.96
2023-04-26T19:23:22.095Z,48.55
2023-04-26T19:26:13.416Z,49.40
2023-04-26T19:29:04.134Z,49.40
2023-04-26T19:31:55.544Z,50.13
2023-04-26T19:34:46.388Z,50.40
2023-04-26T19:37:35.710Z,50.58
2023-04-26T19:40:25.139Z,51.14
2023-04-26T19:43:14.480Z,51.02
2023-04-26T19:46:11.606Z,51.33
2023-04-26T19:49:00.998Z,51.63
2023-04-26T19:51:51.769Z,51.78
2023-04-26T19:54:41.049Z,51.69
2023-04-26T19:57:30.277Z,51.75
2023-04-26T20:00:20.093Z,51.68
2023-04-26T20:03:09.436Z,51.73
2023-04-26T20:05:58.760Z,51.29
2023-04-26T20:08:49.379Z,51.18
2023-04-26T20:11:38.785Z,51.28
2023-04-26T20:14:30.414Z,51.08
2023-04-26T20:17:19.705Z,51.46
2023-04-26T20:20:10.583Z,51.30
2023-04-26T20:23:00.012Z,52.00
2023-04-26T20:25:51.703Z,52.31
2023-04-26T20:28:40.949Z,52.38
2023-04-26T20:31:30.294Z,52.58
2023-04-26T20:34:19.739Z,52.70
2023-04-26T20:37:09.149Z,53.14
2023-04-26T20:39:58.655Z,52.69
2023-04-26T20:42:49.420Z,53.10
2023-04-26T20:45:38.780Z,52.91
2023-04-26T20:48:28.046Z,53.24
2023-04-26T20:51:17.471Z,53.14
2023-04-26T20:54:06.806Z,53.04
2023-04-26T20:56:56.191Z,53.22
2023-04-26T20:59:46.897Z,53.45
2023-04-26T21:02:36.269Z,53.53
2023-04-26T21:05:25.812Z,53.96
2023-04-26T21:08:15.205Z,54.24
2023-04-26T21:11:04.489Z,53.98
2023-04-26T21:13:54.263Z,53.88
2023-04-26T21:16:45.166Z,54.12
2023-04-26T21:19:34.398Z,54.10
2023-04-26T21:22:23.694Z,54.12
2023-04-26T21:25:17.148Z,54.50
2023-04-26T21:28:06.524Z,54.41
2023-04-26T21:31:05.005Z,54.43
2023-04-26T21:33:55.895Z,54.33
2023-04-26T21:36:45.220Z,54.24
2023-04-26T21:39:34.412Z,54.18
2023-04-26T21:42:23.778Z,54.17
2023-04-26T21:45:14.116Z,54.20
2023-04-26T21:48:04.610Z,54.03
2023-04-26T21:50:55.284Z,54.32
2023-04-26T21:53:45.089Z,54.33
2023-04-26T21:56:34.530Z,54.15
2023-04-26T21:59:24.028Z,54.29
2023-04-26T22:02:13.385Z,54.10
2023-04-26T22:05:02.799Z,54.33
2023-04-26T22:07:53.508Z,54.27
2023-04-26T22:10:42.800Z,54.08
2023-04-26T22:13:33.210Z,54.18
2023-04-26T22:16:22.543Z,54.17
2023-04-26T22:19:12.198Z,54.14
2023-04-26T22:22:01.790Z,54.05
2023-04-26T22:24:52.525Z,54.19
2023-04-26T22:27:41.928Z,53.98
2023-04-26T22:30:31.382Z,54.42
2023-04-26T22:33:20.857Z,54.23
2023-04-26T22:36:11.166Z,54.28
2023-04-26T22:39:00.504Z,54.50
2023-04-26T22:41:51.226Z,54.49
2023-04-26T22:44:40.543Z,54.55
2023-04-26T22:47:30.431Z,54.87
2023-04-26T22:50:19.876Z,55.26
2023-04-26T22:53:09.225Z,55.33
2023-04-26T22:55:58.727Z,55.27
2023-04-26T22:58:49.848Z,55.50
2023-04-26T23:01:39.466Z,56.04
2023-04-26T23:04:28.808Z,56.04
2023-04-26T23:07:18.101Z,56.24
2023-04-26T23:10:08.790Z,56.34
2023-04-26T23:12:58.438Z,56.20
2023-04-26T23:15:49.146Z,56.31
2023-04-26T23:18:38.379Z,56.74
2023-04-26T23:21:28.256Z,56.41
2023-04-26T23:24:17.554Z,56.70
2023-04-26T23:27:06.851Z,56.86
2023-04-26T23:29:56.905Z,56.76
2023-04-26T23:32:47.607Z,56.70
2023-04-26T23:35:42.494Z,57.00
2023-04-26T23:38:31.760Z,57.00
2023-04-26T23:41:21.115Z,57.24
2023-04-26T23:44:10.363Z,57.30
2023-04-26T23:46:59.577Z,57.43
2023-04-26T23:49:50.589Z,57.58
2023-04-26T23:52:39.766Z,57.68
2023-04-26T23:55:29.334Z,57.64
2023-04-26T23:58:18.570Z,57.56
